createdAt,value
2022-10-10T00:07:53.217Z,98170
2022-10-10T00:19:53.163Z,98160
2022-10-10T00:31:53.171Z,98160
2022-10-10T00:43:53.227Z,98150
2022-10-10T00:55:53.177Z,98140
2022-10-10T01:07:53.280Z,98130
2022-10-10T01:19:53.258Z,98120
2022-10-10T01:31:53.177Z,98120
2022-10-10T01:43:53.167Z,98110
2022-10-10T01:55:53.927Z,98110
2022-10-10T02:07:53.252Z,98100
2022-10-10T02:19:53.247Z,98090
2022-10-10T02:31:53.291Z,98080
2022-10-10T02:43:53.166Z,98070
2022-10-10T02:55:53.257Z,98070
2022-10-10T03:07:53.241Z,98070
2022-10-10T03:19:53.249Z,98070
2022-10-10T03:31:53.287Z,98070
2022-10-10T03:43:53.263Z,98080
2022-10-10T03:55:53.168Z,98060
2022-10-10T04:07:53.221Z,98070
2022-10-10T04:19:53.241Z,98070
2022-10-10T04:31:53.252Z,98060
2022-10-10T04:43:53.219Z,98040
2022-10-10T04:55:53.234Z,98060
2022-10-10T05:07:55.520Z,98070
2022-10-10T05:19:53.179Z,98070
2022-10-10T05:31:53.179Z,98060
2022-10-10T05:43:53.281Z,98070
2022-10-10T05:55:53.283Z,98070
2022-10-10T06:08:05.753Z,98080
2022-10-10T06:19:53.193Z,98080
2022-10-10T06:31:53.179Z,98100
2022-10-10T06:43:53.207Z,98060
2022-10-10T06:55:53.158Z,98050
2022-10-10T07:07:53.153Z,98080
2022-10-10T07:19:53.163Z,98080
2022-10-10T07:31:53.175Z,98100
2022-10-10T07:43:53.185Z,98110
2022-10-10T07:55:53.164Z,98110
2022-10-10T08:07:53.704Z,98120
2022-10-10T08:19:53.423Z,98120
2022-10-10T08:31:53.243Z,98120
2022-10-10T08:43:53.288Z,98150
2022-10-10T08:55:53.284Z,98160
2022-10-10T09:07:53.167Z,98180
2022-10-10T09:19:53.258Z,98170
2022-10-10T09:31:53.168Z,98180
2022-10-10T09:43:53.162Z,98180
2022-10-10T09:55:53.158Z,98180
2022-10-10T10:07:53.268Z,98180
2022-10-10T10:19:53.269Z,98150
2022-10-10T10:31:53.166Z,98170
2022-10-10T10:43:53.280Z,98200
2022-10-10T10:55:53.158Z,98230
2022-10-10T11:07:53.254Z,98220
2022-10-10T11:19:53.189Z,98230
2022-10-10T11:31:53.164Z,98220
2022-10-10T11:43:53.254Z,98210
2022-10-10T11:55:53.210Z,98220
2022-10-10T12:07:53.338Z,98220
2022-10-10T12:19:53.282Z,98220
2022-10-10T12:31:53.163Z,98220
2022-10-10T12:43:53.276Z,98220
2022-10-10T12:55:53.187Z,98220
2022-10-10T13:07:53.229Z,98220
2022-10-10T13:19:53.224Z,98220
2022-10-10T13:31:53.167Z,98210
2022-10-10T13:43:53.164Z,98220
2022-10-10T13:55:53.166Z,98210
2022-10-10T14:07:53.164Z,98220
2022-10-10T14:19:53.161Z,98210
2022-10-10T14:31:53.181Z,98200
2022-10-10T14:43:53.178Z,98200
2022-10-10T14:55:56.273Z,98220
2022-10-10T15:07:53.187Z,98220
2022-10-10T15:19:53.179Z,98220
2022-10-10T15:31:53.187Z,98220
2022-10-10T15:43:53.177Z,98250
2022-10-10T15:55:53.258Z,98250
2022-10-10T16:07:53.289Z,98260
2022-10-10T16:19:53.282Z,98290
2022-10-10T16:31:53.569Z,98320
2022-10-10T16:43:53.250Z,98350
2022-10-10T16:55:53.159Z,98370
2022-10-10T17:07:53.286Z,98400
2022-10-10T17:19:53.251Z,98400
2022-10-10T17:31:53.285Z,98410
2022-10-10T17:43:53.162Z,98440
2022-10-10T17:55:53.281Z,98450
2022-10-10T18:07:53.274Z,98470
2022-10-10T18:19:53.265Z,98470
2022-10-10T18:31:53.244Z,98480
2022-10-10T18:43:53.275Z,98500
2022-10-10T18:55:53.244Z,98510
2022-10-10T19:07:53.164Z,98520
2022-10-10T19:19:53.228Z,98530
2022-10-10T19:31:53.259Z,98560
2022-10-10T19:43:53.255Z,98570
2022-10-10T19:55:53.285Z,98570
2022-10-10T20:07:53.231Z,98590
2022-10-10T20:19:53.164Z,98590
2022-10-10T20:31:53.270Z,98610
2022-10-10T20:43:53.241Z,98630
2022-10-10T20:55:53.256Z,98650
2022-10-10T21:07:53.272Z,98670
2022-10-10T21:19:53.238Z,98670
2022-10-10T21:31:53.279Z,98680
2022-10-10T21:43:53.195Z,98690
2022-10-10T21:55:53.282Z,98700
2022-10-10T22:07:53.278Z,98720
2022-10-10T22:19:53.263Z,98740
2022-10-10T22:31:53.289Z,98760
2022-10-10T22:43:53.164Z,98770
2022-10-10T22:55:53.166Z,98780
2022-10-10T23:07:53.155Z,98810
2022-10-10T23:19:53.287Z,98820
2022-10-10T23:31:53.420Z,98810
2022-10-10T23:43:53.229Z,98830
2022-10-10T23:55:53.156Z,98840
